sensor_id;sensor_type;location;lat;lon;timestamp;temperature;humidity
17849;DHT22;9050;48.746;9.232;2022-09-13T00:01:06;15.60;99.90
17849;DHT22;9050;48.746;9.232;2022-09-13T00:03:35;15.50;99.90
17849;DHT22;9050;48.746;9.232;2022-09-13T00:06:10;15.50;99.90
17849;DHT22;9050;48.746;9.232;2022-09-13T00:08:37;15.50;99.90
17849;DHT22;9050;48.746;9.232;2022-09-13T00:11:04;15.50;99.90
17849;DHT22;9050;48.746;9.232;2022-09-13T00:13:31;15.50;99.90
17849;DHT22;9050;48.746;9.232;2022-09-13T00:15:58;15.40;99.90
17849;DHT22;9050;48.746;9.232;2022-09-13T00:18:28;15.30;99.90
17849;DHT22;9050;48.746;9.232;2022-09-13T00:21:05;15.30;99.90
17849;DHT22;9050;48.746;9.232;2022-09-13T00:23:32;15.30;99.90
17849;DHT22;9050;48.746;9.232;2022-09-13T00:26:04;15.30;99.90
17849;DHT22;9050;48.746;9.232;2022-09-13T00:28:31;15.30;99.90
17849;DHT22;9050;48.746;9.232;2022-09-13T00:30:59;15.40;99.90
17849;DHT22;9050;48.746;9.232;2022-09-13T00:33:26;15.40;99.90
17849;DHT22;9050;48.746;9.232;2022-09-13T00:35:53;15.30;99.90
17849;DHT22;9050;48.746;9.232;2022-09-13T00:38:21;15.40;99.90
17849;DHT22;9050;48.746;9.232;2022-09-13T00:40:48;15.30;99.90
17849;DHT22;9050;48.746;9.232;2022-09-13T00:43:17;15.20;99.90
17849;DHT22;9050;48.746;9.232;2022-09-13T00:45:45;15.30;99.90
17849;DHT22;9050;48.746;9.232;2022-09-13T00:48:17;15.20;99.90
17849;DHT22;9050;48.746;9.232;2022-09-13T00:50:48;15.20;99.90
17849;DHT22;9050;48.746;9.232;2022-09-13T00:53:20;15.20;99.90
17849;DHT22;9050;48.746;9.232;2022-09-13T00:55:52;15.10;99.90
17849;DHT22;9050;48.746;9.232;2022-09-13T00:58:23;15.00;99.90
17849;DHT22;9050;48.746;9.232;2022-09-13T01:00:52;15.00;99.90
17849;DHT22;9050;48.746;9.232;2022-09-13T01:03:23;15.10;99.90
17849;DHT22;9050;48.746;9.232;2022-09-13T01:05:55;15.10;99.90
17849;DHT22;9050;48.746;9.232;2022-09-13T01:08:24;15.20;99.90
17849;DHT22;9050;48.746;9.232;2022-09-13T01:10:53;15.20;99.90
17849;DHT22;9050;48.746;9.232;2022-09-13T01:13:22;15.20;99.90
17849;DHT22;9050;48.746;9.232;2022-09-13T01:15:50;15.20;99.90
17849;DHT22;9050;48.746;9.232;2022-09-13T01:18:18;15.20;99.90
17849;DHT22;9050;48.746;9.232;2022-09-13T01:21:06;15.10;99.90
17849;DHT22;9050;48.746;9.232;2022-09-13T01:27:08;15.20;99.90
17849;DHT22;9050;48.746;9.232;2022-09-13T01:32:22;15.30;99.90
17849;DHT22;9050;48.746;9.232;2022-09-13T01:34:59;15.30;99.90
17849;DHT22;9050;48.746;9.232;2022-09-13T01:37:41;15.30;99.90
17849;DHT22;9050;48.746;9.232;2022-09-13T01:40:19;15.30;99.90
17849;DHT22;9050;48.746;9.232;2022-09-13T01:43:07;15.10;99.90
17849;DHT22;9050;48.746;9.232;2022-09-13T01:45:46;15.00;99.90
17849;DHT22;9050;48.746;9.232;2022-09-13T01:48:20;14.90;99.90
17849;DHT22;9050;48.746;9.232;2022-09-13T01:50:56;14.90;99.90
17849;DHT22;9050;48.746;9.232;2022-09-13T01:53:32;14.80;99.90
17849;DHT22;9050;48.746;9.232;2022-09-13T01:56:03;14.80;99.90
17849;DHT22;9050;48.746;9.232;2022-09-13T01:58:36;14.80;99.90
17849;DHT22;9050;48.746;9.232;2022-09-13T02:01:08;14.90;99.90
17849;DHT22;9050;48.746;9.232;2022-09-13T02:03:47;15.00;99.90
17849;DHT22;9050;48.746;9.232;2022-09-13T02:06:22;14.90;99.90
17849;DHT22;9050;48.746;9.232;2022-09-13T02:08:52;14.80;99.90
17849;DHT22;9050;48.746;9.232;2022-09-13T02:11:21;14.70;99.90
17849;DHT22;9050;48.746;9.232;2022-09-13T02:13:50;14.80;99.90
17849;DHT22;9050;48.746;9.232;2022-09-13T02:16:25;14.80;99.90
17849;DHT22;9050;48.746;9.232;2022-09-13T02:18:58;14.80;99.90
17849;DHT22;9050;48.746;9.232;2022-09-13T02:21:28;14.80;99.90
17849;DHT22;9050;48.746;9.232;2022-09-13T02:24:00;14.80;99.90
17849;DHT22;9050;48.746;9.232;2022-09-13T02:26:28;14.70;99.90
17849;DHT22;9050;48.746;9.232;2022-09-13T02:28:58;14.70;99.90
17849;DHT22;9050;48.746;9.232;2022-09-13T02:31:32;14.70;99.90
17849;DHT22;9050;48.746;9.232;2022-09-13T02:34:04;14.60;99.90
17849;DHT22;9050;48.746;9.232;2022-09-13T02:36:35;14.60;99.90
17849;DHT22;9050;48.746;9.232;2022-09-13T02:39:08;14.60;99.90
17849;DHT22;9050;48.746;9.232;2022-09-13T02:41:40;14.70;99.90
17849;DHT22;9050;48.746;9.232;2022-09-13T02:44:12;14.70;99.90
17849;DHT22;9050;48.746;9.232;2022-09-13T02:46:50;14.70;99.90
17849;DHT22;9050;48.746;9.232;2022-09-13T02:49:27;14.70;99.90
17849;DHT22;9050;48.746;9.232;2022-09-13T02:52:08;14.70;99.90
17849;DHT22;9050;48.746;9.232;2022-09-13T02:54:41;14.70;99.90
17849;DHT22;9050;48.746;9.232;2022-09-13T02:57:13;14.70;99.90
17849;DHT22;9050;48.746;9.232;2022-09-13T02:59:40;14.70;99.90
17849;DHT22;9050;48.746;9.232;2022-09-13T03:02:09;14.70;99.90
17849;DHT22;9050;48.746;9.232;2022-09-13T03:04:40;14.70;99.90
17849;DHT22;9050;48.746;9.232;2022-09-13T03:07:09;14.80;99.90
17849;DHT22;9050;48.746;9.232;2022-09-13T03:09:37;14.80;99.90
17849;DHT22;9050;48.746;9.232;2022-09-13T03:12:22;14.80;99.90
17849;DHT22;9050;48.746;9.232;2022-09-13T03:14:55;14.70;99.90
17849;DHT22;9050;48.746;9.232;2022-09-13T03:17:36;14.80;99.90
17849;DHT22;9050;48.746;9.232;2022-09-13T03:20:10;14.80;99.90
17849;DHT22;9050;48.746;9.232;2022-09-13T03:23:00;14.80;99.90
17849;DHT22;9050;48.746;9.232;2022-09-13T03:25:46;14.70;99.90
17849;DHT22;9050;48.746;9.232;2022-09-13T03:28:23;14.80;99.90
17849;DHT22;9050;48.746;9.232;2022-09-13T03:30:55;14.80;99.90
17849;DHT22;9050;48.746;9.232;2022-09-13T03:33:30;14.90;99.90
17849;DHT22;9050;48.746;9.232;2022-09-13T03:36:04;14.90;99.90
17849;DHT22;9050;48.746;9.232;2022-09-13T03:38:38;14.80;99.90
17849;DHT22;9050;48.746;9.232;2022-09-13T03:41:08;14.80;99.90
17849;DHT22;9050;48.746;9.232;2022-09-13T03:43:40;14.70;99.90
17849;DHT22;9050;48.746;9.232;2022-09-13T03:46:12;14.70;99.90
17849;DHT22;9050;48.746;9.232;2022-09-13T03:48:40;14.60;99.90
17849;DHT22;9050;48.746;9.232;2022-09-13T03:51:10;14.40;99.90
17849;DHT22;9050;48.746;9.232;2022-09-13T03:53:41;14.30;99.90
17849;DHT22;9050;48.746;9.232;2022-09-13T03:56:12;14.30;99.90
17849;DHT22;9050;48.746;9.232;2022-09-13T03:58:40;14.20;99.90
17849;DHT22;9050;48.746;9.232;2022-09-13T04:01:07;14.20;99.90
17849;DHT22;9050;48.746;9.232;2022-09-13T04:03:35;14.10;99.90
17849;DHT22;9050;48.746;9.232;2022-09-13T04:06:02;14.20;99.90
17849;DHT22;9050;48.746;9.232;2022-09-13T04:08:30;14.10;99.90
17849;DHT22;9050;48.746;9.232;2022-09-13T04:10:57;14.10;99.90
17849;DHT22;9050;48.746;9.232;2022-09-13T04:13:25;14.00;99.90
17849;DHT22;9050;48.746;9.232;2022-09-13T04:15:52;14.00;99.90
17849;DHT22;9050;48.746;9.232;2022-09-13T04:18:19;14.10;99.90
17849;DHT22;9050;48.746;9.232;2022-09-13T04:20:53;14.20;99.90
17849;DHT22;9050;48.746;9.232;2022-09-13T04:23:20;14.20;99.90
17849;DHT22;9050;48.746;9.232;2022-09-13T04:25:48;14.20;99.90
17849;DHT22;9050;48.746;9.232;2022-09-13T04:28:16;14.00;99.90
17849;DHT22;9050;48.746;9.232;2022-09-13T04:30:43;14.00;99.90
17849;DHT22;9050;48.746;9.232;2022-09-13T04:33:10;13.90;99.90
17849;DHT22;9050;48.746;9.232;2022-09-13T04:35:37;14.00;99.90
17849;DHT22;9050;48.746;9.232;2022-09-13T04:38:05;14.00;99.90
17849;DHT22;9050;48.746;9.232;2022-09-13T04:40:32;14.00;99.90
17849;DHT22;9050;48.746;9.232;2022-09-13T04:43:01;14.10;99.90
17849;DHT22;9050;48.746;9.232;2022-09-13T04:45:28;14.20;99.90
17849;DHT22;9050;48.746;9.232;2022-09-13T04:47:55;14.30;99.90
17849;DHT22;9050;48.746;9.232;2022-09-13T04:50:23;14.30;99.90
17849;DHT22;9050;48.746;9.232;2022-09-13T04:52:50;14.30;99.90
17849;DHT22;9050;48.746;9.232;2022-09-13T04:55:19;14.40;99.90
17849;DHT22;9050;48.746;9.232;2022-09-13T04:57:46;14.40;99.90
17849;DHT22;9050;48.746;9.232;2022-09-13T05:00:15;14.50;99.90
17849;DHT22;9050;48.746;9.232;2022-09-13T05:02:42;14.50;99.90
17849;DHT22;9050;48.746;9.232;2022-09-13T05:05:09;14.50;99.90
17849;DHT22;9050;48.746;9.232;2022-09-13T05:07:36;14.60;99.90
17849;DHT22;9050;48.746;9.232;2022-09-13T05:10:03;14.60;99.90
17849;DHT22;9050;48.746;9.232;2022-09-13T05:12:30;14.60;99.90
17849;DHT22;9050;48.746;9.232;2022-09-13T05:14:57;14.60;99.90
17849;DHT22;9050;48.746;9.232;2022-09-13T05:17:25;14.50;99.90
17849;DHT22;9050;48.746;9.232;2022-09-13T05:19:52;14.50;99.90
17849;DHT22;9050;48.746;9.232;2022-09-13T05:22:18;14.60;99.90
17849;DHT22;9050;48.746;9.232;2022-09-13T05:24:45;14.60;99.90
17849;DHT22;9050;48.746;9.232;2022-09-13T05:27:12;14.70;99.90
17849;DHT22;9050;48.746;9.232;2022-09-13T05:29:39;14.70;99.90
17849;DHT22;9050;48.746;9.232;2022-09-13T05:32:06;14.70;99.90
17849;DHT22;9050;48.746;9.232;2022-09-13T05:34:34;14.80;99.90
17849;DHT22;9050;48.746;9.232;2022-09-13T05:37:01;15.40;99.90
17849;DHT22;9050;48.746;9.232;2022-09-13T05:39:27;15.90;99.90
17849;DHT22;9050;48.746;9.232;2022-09-13T05:41:54;15.80;99.90
17849;DHT22;9050;48.746;9.232;2022-09-13T05:44:21;15.70;99.90
17849;DHT22;9050;48.746;9.232;2022-09-13T05:46:48;15.70;99.90
17849;DHT22;9050;48.746;9.232;2022-09-13T05:49:15;15.60;99.90
17849;DHT22;9050;48.746;9.232;2022-09-13T05:51:43;15.70;99.90
17849;DHT22;9050;48.746;9.232;2022-09-13T05:54:11;15.50;99.90
17849;DHT22;9050;48.746;9.232;2022-09-13T05:56:38;15.40;99.90
17849;DHT22;9050;48.746;9.232;2022-09-13T05:59:05;15.40;99.90
17849;DHT22;9050;48.746;9.232;2022-09-13T06:01:33;15.70;99.90
17849;DHT22;9050;48.746;9.232;2022-09-13T06:04:00;16.00;99.90
17849;DHT22;9050;48.746;9.232;2022-09-13T06:06:27;16.00;99.90
17849;DHT22;9050;48.746;9.232;2022-09-13T06:08:56;16.10;99.90
17849;DHT22;9050;48.746;9.232;2022-09-13T06:11:24;16.20;99.90
17849;DHT22;9050;48.746;9.232;2022-09-13T06:13:51;16.20;99.90
17849;DHT22;9050;48.746;9.232;2022-09-13T06:16:18;16.30;99.90
17849;DHT22;9050;48.746;9.232;2022-09-13T06:18:45;16.60;99.90
17849;DHT22;9050;48.746;9.232;2022-09-13T06:21:13;16.70;99.90
17849;DHT22;9050;48.746;9.232;2022-09-13T06:23:42;16.80;99.90
17849;DHT22;9050;48.746;9.232;2022-09-13T06:26:12;17.20;99.90
17849;DHT22;9050;48.746;9.232;2022-09-13T06:28:39;17.10;99.90
17849;DHT22;9050;48.746;9.232;2022-09-13T06:31:08;17.20;99.90
17849;DHT22;9050;48.746;9.232;2022-09-13T06:33:37;17.00;99.90
17849;DHT22;9050;48.746;9.232;2022-09-13T06:36:05;16.90;99.90
17849;DHT22;9050;48.746;9.232;2022-09-13T06:38:33;16.70;99.90
17849;DHT22;9050;48.746;9.232;2022-09-13T06:41:01;16.50;99.90
17849;DHT22;9050;48.746;9.232;2022-09-13T06:43:30;16.50;99.90
17849;DHT22;9050;48.746;9.232;2022-09-13T06:46:01;16.80;99.90
17849;DHT22;9050;48.746;9.232;2022-09-13T06:48:32;17.50;99.90
17849;DHT22;9050;48.746;9.232;2022-09-13T06:51:00;18.90;99.90
17849;DHT22;9050;48.746;9.232;2022-09-13T06:53:28;19.90;99.90
17849;DHT22;9050;48.746;9.232;2022-09-13T06:56:04;20.20;99.90
17849;DHT22;9050;48.746;9.232;2022-09-13T06:58:33;21.00;99.90
17849;DHT22;9050;48.746;9.232;2022-09-13T07:01:05;20.90;99.90
17849;DHT22;9050;48.746;9.232;2022-09-13T07:03:37;20.40;99.90
17849;DHT22;9050;48.746;9.232;2022-09-13T07:06:10;20.70;99.90
17849;DHT22;9050;48.746;9.232;2022-09-13T07:08:38;21.20;99.90
17849;DHT22;9050;48.746;9.232;2022-09-13T07:11:05;22.00;99.90
17849;DHT22;9050;48.746;9.232;2022-09-13T07:13:33;22.80;99.90
17849;DHT22;9050;48.746;9.232;2022-09-13T07:16:01;23.20;99.90
17849;DHT22;9050;48.746;9.232;2022-09-13T07:18:29;23.40;99.90
17849;DHT22;9050;48.746;9.232;2022-09-13T07:20:58;24.30;99.90
17849;DHT22;9050;48.746;9.232;2022-09-13T07:23:28;24.00;99.90
17849;DHT22;9050;48.746;9.232;2022-09-13T07:25:56;23.70;99.90
17849;DHT22;9050;48.746;9.232;2022-09-13T07:28:27;23.30;99.90
17849;DHT22;9050;48.746;9.232;2022-09-13T07:30:55;22.70;99.90
17849;DHT22;9050;48.746;9.232;2022-09-13T07:33:24;22.30;99.90
17849;DHT22;9050;48.746;9.232;2022-09-13T07:35:54;21.50;99.90
17849;DHT22;9050;48.746;9.232;2022-09-13T07:38:21;20.70;99.90
17849;DHT22;9050;48.746;9.232;2022-09-13T07:40:52;20.30;99.90
17849;DHT22;9050;48.746;9.232;2022-09-13T07:43:20;20.30;99.90
17849;DHT22;9050;48.746;9.232;2022-09-13T07:45:47;20.50;99.90
17849;DHT22;9050;48.746;9.232;2022-09-13T07:48:16;21.30;99.90
17849;DHT22;9050;48.746;9.232;2022-09-13T07:50:42;21.40;99.90
17849;DHT22;9050;48.746;9.232;2022-09-13T07:53:09;20.70;99.90
17849;DHT22;9050;48.746;9.232;2022-09-13T07:55:36;20.50;99.90
17849;DHT22;9050;48.746;9.232;2022-09-13T07:58:03;21.20;99.90
17849;DHT22;9050;48.746;9.232;2022-09-13T08:00:30;21.80;99.90
17849;DHT22;9050;48.746;9.232;2022-09-13T08:02:57;23.30;99.90
17849;DHT22;9050;48.746;9.232;2022-09-13T08:05:26;24.60;99.90
17849;DHT22;9050;48.746;9.232;2022-09-13T08:07:53;26.30;99.90
17849;DHT22;9050;48.746;9.232;2022-09-13T08:10:20;25.90;99.90
17849;DHT22;9050;48.746;9.232;2022-09-13T08:12:47;26.00;99.90
17849;DHT22;9050;48.746;9.232;2022-09-13T08:15:14;25.20;99.90
17849;DHT22;9050;48.746;9.232;2022-09-13T08:17:41;24.50;99.90
17849;DHT22;9050;48.746;9.232;2022-09-13T08:20:08;24.20;99.90
17849;DHT22;9050;48.746;9.232;2022-09-13T08:22:37;23.30;99.90
17849;DHT22;9050;48.746;9.232;2022-09-13T08:25:05;22.90;99.90
17849;DHT22;9050;48.746;9.232;2022-09-13T08:27:32;22.70;99.90
17849;DHT22;9050;48.746;9.232;2022-09-13T08:29:59;22.30;99.90
17849;DHT22;9050;48.746;9.232;2022-09-13T08:32:26;22.00;99.90
17849;DHT22;9050;48.746;9.232;2022-09-13T08:34:53;22.00;99.90
17849;DHT22;9050;48.746;9.232;2022-09-13T08:37:20;22.00;99.90
17849;DHT22;9050;48.746;9.232;2022-09-13T08:39:48;21.80;99.90
17849;DHT22;9050;48.746;9.232;2022-09-13T08:42:23;21.90;99.90
17849;DHT22;9050;48.746;9.232;2022-09-13T08:44:53;21.60;99.90
17849;DHT22;9050;48.746;9.232;2022-09-13T08:47:40;21.80;99.90
17849;DHT22;9050;48.746;9.232;2022-09-13T08:50:13;22.10;99.90
17849;DHT22;9050;48.746;9.232;2022-09-13T08:53:04;22.40;99.90
17849;DHT22;9050;48.746;9.232;2022-09-13T08:55:45;22.40;99.90
17849;DHT22;9050;48.746;9.232;2022-09-13T08:58:43;22.40;99.90
17849;DHT22;9050;48.746;9.232;2022-09-13T09:01:20;22.60;99.90
17849;DHT22;9050;48.746;9.232;2022-09-13T09:03:53;22.50;99.90
17849;DHT22;9050;48.746;9.232;2022-09-13T09:06:29;22.70;99.90
17849;DHT22;9050;48.746;9.232;2022-09-13T09:08:59;22.80;99.90
17849;DHT22;9050;48.746;9.232;2022-09-13T09:11:35;23.20;99.90
17849;DHT22;9050;48.746;9.232;2022-09-13T09:14:07;22.90;99.90
17849;DHT22;9050;48.746;9.232;2022-09-13T09:16:40;23.30;99.90
17849;DHT22;9050;48.746;9.232;2022-09-13T09:19:17;23.70;99.90
17849;DHT22;9050;48.746;9.232;2022-09-13T09:21:48;23.90;99.90
17849;DHT22;9050;48.746;9.232;2022-09-13T09:24:19;23.80;99.90
17849;DHT22;9050;48.746;9.232;2022-09-13T09:26:49;23.40;99.90
17849;DHT22;9050;48.746;9.232;2022-09-13T09:29:18;22.90;99.90
17849;DHT22;9050;48.746;9.232;2022-09-13T09:31:56;22.90;99.90
17849;DHT22;9050;48.746;9.232;2022-09-13T09:34:32;23.80;99.90
17849;DHT22;9050;48.746;9.232;2022-09-13T09:37:13;24.80;99.90
17849;DHT22;9050;48.746;9.232;2022-09-13T09:39:41;24.40;99.90
17849;DHT22;9050;48.746;9.232;2022-09-13T09:42:12;24.70;99.90
17849;DHT22;9050;48.746;9.232;2022-09-13T09:44:42;24.50;99.90
17849;DHT22;9050;48.746;9.232;2022-09-13T09:47:15;25.10;99.90
17849;DHT22;9050;48.746;9.232;2022-09-13T09:49:45;25.50;99.90
17849;DHT22;9050;48.746;9.232;2022-09-13T09:52:34;25.70;99.90
17849;DHT22;9050;48.746;9.232;2022-09-13T09:55:14;26.10;99.90
17849;DHT22;9050;48.746;9.232;2022-09-13T09:57:52;26.30;99.90
17849;DHT22;9050;48.746;9.232;2022-09-13T10:00:20;26.40;99.90
17849;DHT22;9050;48.746;9.232;2022-09-13T10:02:48;25.40;99.90
17849;DHT22;9050;48.746;9.232;2022-09-13T10:05:18;25.70;99.90
17849;DHT22;9050;48.746;9.232;2022-09-13T10:07:52;25.70;99.90
17849;DHT22;9050;48.746;9.232;2022-09-13T10:10:23;25.00;99.90
17849;DHT22;9050;48.746;9.232;2022-09-13T10:12:54;25.60;99.90
17849;DHT22;9050;48.746;9.232;2022-09-13T10:15:24;25.40;99.90
17849;DHT22;9050;48.746;9.232;2022-09-13T10:18:05;25.10;99.90
17849;DHT22;9050;48.746;9.232;2022-09-13T10:20:33;25.00;99.90
17849;DHT22;9050;48.746;9.232;2022-09-13T10:23:19;24.80;99.90
17849;DHT22;9050;48.746;9.232;2022-09-13T10:26:05;24.60;99.90
17849;DHT22;9050;48.746;9.232;2022-09-13T10:28:35;24.90;99.90
17849;DHT22;9050;48.746;9.232;2022-09-13T10:31:09;24.50;99.90
17849;DHT22;9050;48.746;9.232;2022-09-13T10:33:39;24.30;99.90
17849;DHT22;9050;48.746;9.232;2022-09-13T10:36:12;24.30;99.90
17849;DHT22;9050;48.746;9.232;2022-09-13T10:38:43;24.10;99.90
17849;DHT22;9050;48.746;9.232;2022-09-13T10:41:21;23.90;99.90
17849;DHT22;9050;48.746;9.232;2022-09-13T10:43:55;24.10;99.90
17849;DHT22;9050;48.746;9.232;2022-09-13T10:46:23;24.30;99.90
17849;DHT22;9050;48.746;9.232;2022-09-13T10:48:49;24.50;99.90
17849;DHT22;9050;48.746;9.232;2022-09-13T10:51:30;25.00;99.90
17849;DHT22;9050;48.746;9.232;2022-09-13T10:54:19;25.30;99.90
17849;DHT22;9050;48.746;9.232;2022-09-13T10:56:46;25.70;99.90
17849;DHT22;9050;48.746;9.232;2022-09-13T10:59:20;25.70;99.90
17849;DHT22;9050;48.746;9.232;2022-09-13T11:02:00;26.10;99.90
17849;DHT22;9050;48.746;9.232;2022-09-13T11:04:50;26.50;99.90
17849;DHT22;9050;48.746;9.232;2022-09-13T11:07:39;26.40;99.90
17849;DHT22;9050;48.746;9.232;2022-09-13T11:10:16;26.80;99.90
17849;DHT22;9050;48.746;9.232;2022-09-13T11:12:51;27.00;99.90
17849;DHT22;9050;48.746;9.232;2022-09-13T11:15:31;26.50;99.90
17849;DHT22;9050;48.746;9.232;2022-09-13T11:18:33;26.50;99.90
17849;DHT22;9050;48.746;9.232;2022-09-13T11:21:12;26.00;99.90
17849;DHT22;9050;48.746;9.232;2022-09-13T11:24:12;25.90;99.90
17849;DHT22;9050;48.746;9.232;2022-09-13T11:26:48;26.20;99.90
17849;DHT22;9050;48.746;9.232;2022-09-13T11:29:26;26.20;99.90
17849;DHT22;9050;48.746;9.232;2022-09-13T11:32:04;26.80;99.90
17849;DHT22;9050;48.746;9.232;2022-09-13T11:34:41;27.10;99.90
17849;DHT22;9050;48.746;9.232;2022-09-13T11:37:27;27.40;99.90
17849;DHT22;9050;48.746;9.232;2022-09-13T11:40:05;27.80;99.90
17849;DHT22;9050;48.746;9.232;2022-09-13T11:42:44;28.20;99.90
17849;DHT22;9050;48.746;9.232;2022-09-13T11:45:21;28.20;99.90
17849;DHT22;9050;48.746;9.232;2022-09-13T11:48:23;27.50;99.90
17849;DHT22;9050;48.746;9.232;2022-09-13T11:50:58;27.90;99.90
17849;DHT22;9050;48.746;9.232;2022-09-13T11:53:49;28.40;99.90
17849;DHT22;9050;48.746;9.232;2022-09-13T11:56:22;28.30;99.90
17849;DHT22;9050;48.746;9.232;2022-09-13T11:58:52;28.40;99.90
17849;DHT22;9050;48.746;9.232;2022-09-13T12:01:25;28.20;99.90
17849;DHT22;9050;48.746;9.232;2022-09-13T12:03:57;28.20;99.90
17849;DHT22;9050;48.746;9.232;2022-09-13T12:06:29;28.20;99.90
17849;DHT22;9050;48.746;9.232;2022-09-13T12:09:00;27.90;99.90
17849;DHT22;9050;48.746;9.232;2022-09-13T12:11:31;27.60;99.90
17849;DHT22;9050;48.746;9.232;2022-09-13T12:14:01;28.00;99.90
17849;DHT22;9050;48.746;9.232;2022-09-13T12:16:31;28.40;99.90
17849;DHT22;9050;48.746;9.232;2022-09-13T12:19:02;27.80;99.90
17849;DHT22;9050;48.746;9.232;2022-09-13T12:21:35;27.80;99.90
17849;DHT22;9050;48.746;9.232;2022-09-13T12:24:05;27.60;99.90
17849;DHT22;9050;48.746;9.232;2022-09-13T12:26:38;26.90;99.90
17849;DHT22;9050;48.746;9.232;2022-09-13T12:29:13;26.90;99.90
17849;DHT22;9050;48.746;9.232;2022-09-13T12:31:40;27.00;99.90
17849;DHT22;9050;48.746;9.232;2022-09-13T12:34:10;27.30;99.90
17849;DHT22;9050;48.746;9.232;2022-09-13T12:39:59;27.00;99.90
17849;DHT22;9050;48.746;9.232;2022-09-13T12:42:51;27.10;99.90
17849;DHT22;9050;48.746;9.232;2022-09-13T12:45:35;27.20;99.90
17849;DHT22;9050;48.746;9.232;2022-09-13T12:48:26;27.50;99.90
17849;DHT22;9050;48.746;9.232;2022-09-13T12:51:14;27.80;99.90
17849;DHT22;9050;48.746;9.232;2022-09-13T12:57:02;27.70;99.90
17849;DHT22;9050;48.746;9.232;2022-09-13T12:59:42;27.60;99.90
17849;DHT22;9050;48.746;9.232;2022-09-13T13:02:33;27.50;99.90
17849;DHT22;9050;48.746;9.232;2022-09-13T13:05:04;27.00;99.90
17849;DHT22;9050;48.746;9.232;2022-09-13T13:07:34;26.80;99.90
17849;DHT22;9050;48.746;9.232;2022-09-13T13:10:04;27.10;99.90
17849;DHT22;9050;48.746;9.232;2022-09-13T13:12:33;27.40;99.90
17849;DHT22;9050;48.746;9.232;2022-09-13T13:15:02;27.50;99.90
17849;DHT22;9050;48.746;9.232;2022-09-13T13:17:44;27.50;99.90
17849;DHT22;9050;48.746;9.232;2022-09-13T13:20:40;27.70;99.90
17849;DHT22;9050;48.746;9.232;2022-09-13T13:23:18;27.30;99.90
17849;DHT22;9050;48.746;9.232;2022-09-13T13:26:03;27.30;99.90
17849;DHT22;9050;48.746;9.232;2022-09-13T13:29:03;27.50;99.90
17849;DHT22;9050;48.746;9.232;2022-09-13T13:31:38;28.10;99.90
17849;DHT22;9050;48.746;9.232;2022-09-13T13:34:44;28.10;99.90
17849;DHT22;9050;48.746;9.232;2022-09-13T13:37:31;28.40;99.90
17849;DHT22;9050;48.746;9.232;2022-09-13T13:43:29;28.50;99.90
17849;DHT22;9050;48.746;9.232;2022-09-13T13:46:22;29.00;99.90
17849;DHT22;9050;48.746;9.232;2022-09-13T13:48:46;29.00;99.90
17849;DHT22;9050;48.746;9.232;2022-09-13T13:51:24;29.10;99.90
17849;DHT22;9050;48.746;9.232;2022-09-13T13:53:58;29.10;99.90
17849;DHT22;9050;48.746;9.232;2022-09-13T13:56:44;29.00;99.90
17849;DHT22;9050;48.746;9.232;2022-09-13T13:59:17;28.30;99.90
17849;DHT22;9050;48.746;9.232;2022-09-13T14:01:48;28.10;99.90
17849;DHT22;9050;48.746;9.232;2022-09-13T14:04:48;27.90;99.90
17849;DHT22;9050;48.746;9.232;2022-09-13T14:10:19;28.10;99.90
17849;DHT22;9050;48.746;9.232;2022-09-13T14:13:02;28.40;99.90
17849;DHT22;9050;48.746;9.232;2022-09-13T14:15:42;28.50;99.90
17849;DHT22;9050;48.746;9.232;2022-09-13T14:18:44;28.70;99.90
17849;DHT22;9050;48.746;9.232;2022-09-13T14:21:23;28.70;97.90
17849;DHT22;9050;48.746;9.232;2022-09-13T14:24:07;28.40;98.50
17849;DHT22;9050;48.746;9.232;2022-09-13T14:26:35;28.30;97.50
17849;DHT22;9050;48.746;9.232;2022-09-13T14:29:06;28.40;97.40
17849;DHT22;9050;48.746;9.232;2022-09-13T14:31:35;28.50;97.50
17849;DHT22;9050;48.746;9.232;2022-09-13T14:34:02;28.20;97.40
17849;DHT22;9050;48.746;9.232;2022-09-13T14:36:29;28.00;97.00
17849;DHT22;9050;48.746;9.232;2022-09-13T14:38:59;28.00;97.20
17849;DHT22;9050;48.746;9.232;2022-09-13T14:41:31;28.10;96.70
17849;DHT22;9050;48.746;9.232;2022-09-13T14:44:15;28.30;96.10
17849;DHT22;9050;48.746;9.232;2022-09-13T14:46:46;28.40;96.40
17849;DHT22;9050;48.746;9.232;2022-09-13T14:49:22;28.70;95.30
17849;DHT22;9050;48.746;9.232;2022-09-13T14:51:53;28.70;94.60
17849;DHT22;9050;48.746;9.232;2022-09-13T14:54:27;28.70;94.10
17849;DHT22;9050;48.746;9.232;2022-09-13T14:56:58;28.40;94.60
17849;DHT22;9050;48.746;9.232;2022-09-13T14:59:29;28.40;94.60
17849;DHT22;9050;48.746;9.232;2022-09-13T15:02:04;27.90;95.20
17849;DHT22;9050;48.746;9.232;2022-09-13T15:04:32;28.00;94.50
17849;DHT22;9050;48.746;9.232;2022-09-13T15:07:07;27.90;94.30
17849;DHT22;9050;48.746;9.232;2022-09-13T15:09:34;27.70;94.50
17849;DHT22;9050;48.746;9.232;2022-09-13T15:12:03;27.50;94.90
17849;DHT22;9050;48.746;9.232;2022-09-13T15:14:32;27.30;95.60
17849;DHT22;9050;48.746;9.232;2022-09-13T15:17:07;27.10;95.60
17849;DHT22;9050;48.746;9.232;2022-09-13T15:19:37;26.90;96.10
17849;DHT22;9050;48.746;9.232;2022-09-13T15:22:12;26.80;96.60
17849;DHT22;9050;48.746;9.232;2022-09-13T15:24:43;26.90;96.70
17849;DHT22;9050;48.746;9.232;2022-09-13T15:27:24;26.90;96.50
17849;DHT22;9050;48.746;9.232;2022-09-13T15:29:53;27.00;95.40
17849;DHT22;9050;48.746;9.232;2022-09-13T15:32:29;27.10;96.10
17849;DHT22;9050;48.746;9.232;2022-09-13T15:34:57;27.10;95.70
17849;DHT22;9050;48.746;9.232;2022-09-13T15:37:33;27.10;95.00
17849;DHT22;9050;48.746;9.232;2022-09-13T15:40:18;26.90;97.10
17849;DHT22;9050;48.746;9.232;2022-09-13T15:42:47;26.90;99.90
17849;DHT22;9050;48.746;9.232;2022-09-13T15:45:14;26.70;99.90
17849;DHT22;9050;48.746;9.232;2022-09-13T15:47:45;26.70;99.90
17849;DHT22;9050;48.746;9.232;2022-09-13T15:50:19;26.60;99.90
17849;DHT22;9050;48.746;9.232;2022-09-13T15:52:47;26.50;99.90
17849;DHT22;9050;48.746;9.232;2022-09-13T15:55:14;26.50;99.90
17849;DHT22;9050;48.746;9.232;2022-09-13T15:57:42;26.40;99.90
17849;DHT22;9050;48.746;9.232;2022-09-13T16:00:15;26.30;99.90
17849;DHT22;9050;48.746;9.232;2022-09-13T16:02:42;26.20;99.90
17849;DHT22;9050;48.746;9.232;2022-09-13T16:05:11;26.10;99.90
17849;DHT22;9050;48.746;9.232;2022-09-13T16:07:40;26.00;99.90
17849;DHT22;9050;48.746;9.232;2022-09-13T16:10:11;25.90;99.90
17849;DHT22;9050;48.746;9.232;2022-09-13T16:12:39;25.80;99.90
17849;DHT22;9050;48.746;9.232;2022-09-13T16:15:07;25.80;99.90
17849;DHT22;9050;48.746;9.232;2022-09-13T16:17:34;25.70;99.90
17849;DHT22;9050;48.746;9.232;2022-09-13T16:20:02;25.70;99.90
17849;DHT22;9050;48.746;9.232;2022-09-13T16:22:30;25.60;99.90
17849;DHT22;9050;48.746;9.232;2022-09-13T16:24:57;25.60;99.90
17849;DHT22;9050;48.746;9.232;2022-09-13T16:27:24;25.60;99.90
17849;DHT22;9050;48.746;9.232;2022-09-13T16:29:52;25.50;99.90
17849;DHT22;9050;48.746;9.232;2022-09-13T16:32:19;25.50;99.90
17849;DHT22;9050;48.746;9.232;2022-09-13T16:34:46;25.40;99.90
17849;DHT22;9050;48.746;9.232;2022-09-13T16:37:14;25.40;99.90